sensor_id;sensor_type;location;lat;lon;timestamp;P1;durP1;ratioP1;P2;durP2;ratioP2
66886;SDS011;67239;51.680;5.976;2023-08-30T00:01:14;8.55;;;6.97;;
66886;SDS011;67239;51.680;5.976;2023-08-30T00:03:41;9.93;;;6.90;;
66886;SDS011;67239;51.680;5.976;2023-08-30T00:06:08;9.63;;;7.20;;
66886;SDS011;67239;51.680;5.976;2023-08-30T00:08:35;9.93;;;7.35;;
66886;SDS011;67239;51.680;5.976;2023-08-30T00:11:02;8.55;;;6.95;;
66886;SDS011;67239;51.680;5.976;2023-08-30T00:13:31;9.43;;;7.22;;
66886;SDS011;67239;51.680;5.976;2023-08-30T00:16:00;9.40;;;7.45;;
66886;SDS011;67239;51.680;5.976;2023-08-30T00:18:29;8.70;;;7.80;;
66886;SDS011;67239;51.680;5.976;2023-08-30T00:20:58;9.82;;;7.20;;
66886;SDS011;67239;51.680;5.976;2023-08-30T00:23:25;8.32;;;6.65;;
66886;SDS011;67239;51.680;5.976;2023-08-30T00:25:52;10.32;;;7.50;;
66886;SDS011;67239;51.680;5.976;2023-08-30T00:28:19;9.55;;;7.45;;
66886;SDS011;67239;51.680;5.976;2023-08-30T00:30:46;9.15;;;8.15;;
66886;SDS011;67239;51.680;5.976;2023-08-30T00:33:19;8.77;;;7.50;;
66886;SDS011;67239;51.680;5.976;2023-08-30T00:35:46;8.18;;;7.35;;
66886;SDS011;67239;51.680;5.976;2023-08-30T00:38:13;10.10;;;7.60;;
66886;SDS011;67239;51.680;5.976;2023-08-30T00:40:40;12.95;;;7.60;;
66886;SDS011;67239;51.680;5.976;2023-08-30T00:43:09;9.45;;;7.25;;
66886;SDS011;67239;51.680;5.976;2023-08-30T00:45:37;10.38;;;7.47;;
66886;SDS011;67239;51.680;5.976;2023-08-30T00:48:07;10.60;;;7.60;;
66886;SDS011;67239;51.680;5.976;2023-08-30T00:50:35;10.02;;;8.18;;
66886;SDS011;67239;51.680;5.976;2023-08-30T00:53:03;10.63;;;7.68;;
66886;SDS011;67239;51.680;5.976;2023-08-30T00:55:36;10.07;;;7.88;;
66886;SDS011;67239;51.680;5.976;2023-08-30T00:58:05;10.90;;;8.00;;
66886;SDS011;67239;51.680;5.976;2023-08-30T01:00:34;10.27;;;7.97;;
66886;SDS011;67239;51.680;5.976;2023-08-30T01:03:02;11.02;;;8.80;;
66886;SDS011;67239;51.680;5.976;2023-08-30T01:05:33;11.45;;;8.65;;
66886;SDS011;67239;51.680;5.976;2023-08-30T01:08:00;13.50;;;9.30;;
66886;SDS011;67239;51.680;5.976;2023-08-30T01:10:31;12.20;;;8.93;;
66886;SDS011;67239;51.680;5.976;2023-08-30T01:13:28;10.95;;;9.00;;
66886;SDS011;67239;51.680;5.976;2023-08-30T01:16:04;11.02;;;9.15;;
66886;SDS011;67239;51.680;5.976;2023-08-30T01:18:32;12.27;;;8.98;;
66886;SDS011;67239;51.680;5.976;2023-08-30T01:21:03;13.02;;;9.18;;
66886;SDS011;67239;51.680;5.976;2023-08-30T01:26:29;12.95;;;9.50;;
66886;SDS011;67239;51.680;5.976;2023-08-30T01:29:18;13.40;;;9.10;;
66886;SDS011;67239;51.680;5.976;2023-08-30T01:31:47;13.00;;;10.02;;
66886;SDS011;67239;51.680;5.976;2023-08-30T01:34:16;12.32;;;10.57;;
66886;SDS011;67239;51.680;5.976;2023-08-30T01:36:44;12.00;;;10.60;;
66886;SDS011;67239;51.680;5.976;2023-08-30T01:39:12;11.88;;;10.13;;
66886;SDS011;67239;51.680;5.976;2023-08-30T01:41:42;15.93;;;10.18;;
66886;SDS011;67239;51.680;5.976;2023-08-30T01:44:11;14.00;;;10.18;;
66886;SDS011;67239;51.680;5.976;2023-08-30T01:46:42;11.98;;;10.38;;
66886;SDS011;67239;51.680;5.976;2023-08-30T01:49:12;12.07;;;10.30;;
66886;SDS011;67239;51.680;5.976;2023-08-30T01:51:40;14.43;;;9.98;;
66886;SDS011;67239;51.680;5.976;2023-08-30T01:54:08;14.15;;;11.00;;
66886;SDS011;67239;51.680;5.976;2023-08-30T01:56:43;14.80;;;11.85;;
66886;SDS011;67239;51.680;5.976;2023-08-30T01:59:12;12.20;;;10.00;;
66886;SDS011;67239;51.680;5.976;2023-08-30T02:01:39;17.40;;;11.65;;
66886;SDS011;67239;51.680;5.976;2023-08-30T02:04:06;12.65;;;10.60;;
66886;SDS011;67239;51.680;5.976;2023-08-30T02:06:45;14.50;;;11.10;;
66886;SDS011;67239;51.680;5.976;2023-08-30T02:09:24;14.07;;;11.05;;
66886;SDS011;67239;51.680;5.976;2023-08-30T02:12:24;13.90;;;10.68;;
66886;SDS011;67239;51.680;5.976;2023-08-30T02:15:09;12.57;;;10.93;;
66886;SDS011;67239;51.680;5.976;2023-08-30T02:17:39;13.23;;;11.15;;
66886;SDS011;67239;51.680;5.976;2023-08-30T02:20:07;12.75;;;11.43;;
66886;SDS011;67239;51.680;5.976;2023-08-30T02:22:35;13.45;;;11.27;;
66886;SDS011;67239;51.680;5.976;2023-08-30T02:25:02;16.10;;;11.75;;
66886;SDS011;67239;51.680;5.976;2023-08-30T02:27:33;14.65;;;11.65;;
66886;SDS011;67239;51.680;5.976;2023-08-30T02:30:04;13.23;;;11.85;;
66886;SDS011;67239;51.680;5.976;2023-08-30T02:32:32;15.00;;;11.90;;
66886;SDS011;67239;51.680;5.976;2023-08-30T02:34:59;13.55;;;11.02;;
66886;SDS011;67239;51.680;5.976;2023-08-30T02:37:27;13.35;;;11.70;;
66886;SDS011;67239;51.680;5.976;2023-08-30T02:39:54;13.43;;;10.50;;
66886;SDS011;67239;51.680;5.976;2023-08-30T02:42:21;14.73;;;11.30;;
66886;SDS011;67239;51.680;5.976;2023-08-30T02:44:48;16.23;;;12.25;;
66886;SDS011;67239;51.680;5.976;2023-08-30T02:47:15;12.98;;;11.27;;
66886;SDS011;67239;51.680;5.976;2023-08-30T02:49:42;12.85;;;10.68;;
66886;SDS011;67239;51.680;5.976;2023-08-30T02:52:09;13.88;;;11.30;;
66886;SDS011;67239;51.680;5.976;2023-08-30T02:54:36;12.50;;;11.10;;
66886;SDS011;67239;51.680;5.976;2023-08-30T02:57:03;14.05;;;11.68;;
66886;SDS011;67239;51.680;5.976;2023-08-30T02:59:31;17.80;;;12.48;;
66886;SDS011;67239;51.680;5.976;2023-08-30T03:02:03;14.93;;;12.00;;
66886;SDS011;67239;51.680;5.976;2023-08-30T03:04:31;14.63;;;12.43;;
66886;SDS011;67239;51.680;5.976;2023-08-30T03:06:58;16.70;;;12.55;;
66886;SDS011;67239;51.680;5.976;2023-08-30T03:09:27;15.18;;;12.48;;
66886;SDS011;67239;51.680;5.976;2023-08-30T03:11:54;14.32;;;12.35;;
66886;SDS011;67239;51.680;5.976;2023-08-30T03:14:22;18.13;;;13.38;;
66886;SDS011;67239;51.680;5.976;2023-08-30T03:16:49;16.60;;;12.77;;
66886;SDS011;67239;51.680;5.976;2023-08-30T03:19:16;15.00;;;12.43;;
66886;SDS011;67239;51.680;5.976;2023-08-30T03:21:44;17.38;;;13.68;;
66886;SDS011;67239;51.680;5.976;2023-08-30T03:24:11;15.02;;;13.07;;
66886;SDS011;67239;51.680;5.976;2023-08-30T03:26:42;15.68;;;14.05;;
66886;SDS011;67239;51.680;5.976;2023-08-30T03:29:11;19.48;;;14.70;;
66886;SDS011;67239;51.680;5.976;2023-08-30T03:31:38;18.88;;;14.55;;
66886;SDS011;67239;51.680;5.976;2023-08-30T03:34:05;15.85;;;13.48;;
66886;SDS011;67239;51.680;5.976;2023-08-30T03:36:32;18.55;;;15.10;;
66886;SDS011;67239;51.680;5.976;2023-08-30T03:38:59;16.15;;;14.10;;
66886;SDS011;67239;51.680;5.976;2023-08-30T03:41:26;18.15;;;15.40;;
66886;SDS011;67239;51.680;5.976;2023-08-30T03:43:54;17.98;;;15.15;;
66886;SDS011;67239;51.680;5.976;2023-08-30T03:46:21;19.42;;;14.80;;
66886;SDS011;67239;51.680;5.976;2023-08-30T03:48:48;15.20;;;13.60;;
66886;SDS011;67239;51.680;5.976;2023-08-30T03:51:16;16.67;;;13.73;;
66886;SDS011;67239;51.680;5.976;2023-08-30T03:53:43;16.08;;;14.27;;
66886;SDS011;67239;51.680;5.976;2023-08-30T03:56:10;18.30;;;14.45;;
66886;SDS011;67239;51.680;5.976;2023-08-30T03:58:38;16.45;;;14.38;;
66886;SDS011;67239;51.680;5.976;2023-08-30T04:01:05;17.33;;;14.57;;
66886;SDS011;67239;51.680;5.976;2023-08-30T04:03:33;17.80;;;14.60;;
66886;SDS011;67239;51.680;5.976;2023-08-30T04:06:01;18.92;;;14.95;;
66886;SDS011;67239;51.680;5.976;2023-08-30T04:08:28;17.10;;;14.25;;
66886;SDS011;67239;51.680;5.976;2023-08-30T04:10:55;18.38;;;15.02;;
66886;SDS011;67239;51.680;5.976;2023-08-30T04:13:23;20.10;;;15.60;;
66886;SDS011;67239;51.680;5.976;2023-08-30T04:15:51;17.50;;;15.60;;
66886;SDS011;67239;51.680;5.976;2023-08-30T04:18:18;17.95;;;14.75;;
66886;SDS011;67239;51.680;5.976;2023-08-30T04:20:45;16.60;;;14.90;;
66886;SDS011;67239;51.680;5.976;2023-08-30T04:23:14;17.35;;;13.55;;
66886;SDS011;67239;51.680;5.976;2023-08-30T04:25:43;17.55;;;14.70;;
66886;SDS011;67239;51.680;5.976;2023-08-30T04:28:11;17.85;;;14.48;;
66886;SDS011;67239;51.680;5.976;2023-08-30T04:30:39;18.20;;;15.45;;
66886;SDS011;67239;51.680;5.976;2023-08-30T04:33:07;18.35;;;15.70;;
66886;SDS011;67239;51.680;5.976;2023-08-30T04:35:34;19.17;;;15.60;;
66886;SDS011;67239;51.680;5.976;2023-08-30T04:38:02;19.35;;;15.73;;
66886;SDS011;67239;51.680;5.976;2023-08-30T04:40:30;19.45;;;15.30;;
66886;SDS011;67239;51.680;5.976;2023-08-30T04:42:59;19.10;;;15.45;;
66886;SDS011;67239;51.680;5.976;2023-08-30T04:45:27;19.05;;;15.57;;
66886;SDS011;67239;51.680;5.976;2023-08-30T04:47:56;20.77;;;16.13;;
66886;SDS011;67239;51.680;5.976;2023-08-30T04:50:25;19.27;;;15.48;;
66886;SDS011;67239;51.680;5.976;2023-08-30T04:52:52;17.85;;;15.60;;
66886;SDS011;67239;51.680;5.976;2023-08-30T04:55:19;17.60;;;15.70;;
66886;SDS011;67239;51.680;5.976;2023-08-30T04:57:47;17.40;;;14.85;;
66886;SDS011;67239;51.680;5.976;2023-08-30T05:00:16;28.00;;;16.95;;
66886;SDS011;67239;51.680;5.976;2023-08-30T05:02:46;20.80;;;15.70;;
66886;SDS011;67239;51.680;5.976;2023-08-30T05:05:14;21.15;;;16.00;;
66886;SDS011;67239;51.680;5.976;2023-08-30T05:07:42;19.40;;;16.13;;
66886;SDS011;67239;51.680;5.976;2023-08-30T05:10:09;18.83;;;15.90;;
66886;SDS011;67239;51.680;5.976;2023-08-30T05:12:37;20.15;;;16.65;;
66886;SDS011;67239;51.680;5.976;2023-08-30T05:15:05;22.55;;;17.08;;
66886;SDS011;67239;51.680;5.976;2023-08-30T05:17:32;25.52;;;17.33;;
66886;SDS011;67239;51.680;5.976;2023-08-30T05:20:00;23.30;;;16.80;;
66886;SDS011;67239;51.680;5.976;2023-08-30T05:22:27;20.75;;;17.58;;
66886;SDS011;67239;51.680;5.976;2023-08-30T05:24:55;21.38;;;16.55;;
66886;SDS011;67239;51.680;5.976;2023-08-30T05:27:22;24.00;;;17.00;;
66886;SDS011;67239;51.680;5.976;2023-08-30T05:29:49;20.52;;;16.20;;
66886;SDS011;67239;51.680;5.976;2023-08-30T05:32:17;18.88;;;15.82;;
66886;SDS011;67239;51.680;5.976;2023-08-30T05:35:05;20.48;;;15.20;;
66886;SDS011;67239;51.680;5.976;2023-08-30T05:37:59;20.52;;;16.30;;
66886;SDS011;67239;51.680;5.976;2023-08-30T05:40:49;18.73;;;14.57;;
66886;SDS011;67239;51.680;5.976;2023-08-30T05:43:16;20.70;;;15.25;;
66886;SDS011;67239;51.680;5.976;2023-08-30T05:45:44;19.80;;;15.35;;
66886;SDS011;67239;51.680;5.976;2023-08-30T05:48:11;21.02;;;16.35;;
66886;SDS011;67239;51.680;5.976;2023-08-30T05:50:39;19.48;;;16.67;;
66886;SDS011;67239;51.680;5.976;2023-08-30T05:53:07;21.08;;;15.93;;
66886;SDS011;67239;51.680;5.976;2023-08-30T05:55:34;18.83;;;16.23;;
66886;SDS011;67239;51.680;5.976;2023-08-30T05:58:01;19.63;;;15.75;;
66886;SDS011;67239;51.680;5.976;2023-08-30T06:00:29;22.73;;;17.13;;
66886;SDS011;67239;51.680;5.976;2023-08-30T06:02:56;28.35;;;16.63;;
66886;SDS011;67239;51.680;5.976;2023-08-30T06:05:23;27.30;;;16.55;;
66886;SDS011;67239;51.680;5.976;2023-08-30T06:07:50;22.60;;;16.63;;
66886;SDS011;67239;51.680;5.976;2023-08-30T06:10:17;21.55;;;16.80;;
66886;SDS011;67239;51.680;5.976;2023-08-30T06:12:45;20.50;;;16.33;;
66886;SDS011;67239;51.680;5.976;2023-08-30T06:15:12;19.23;;;16.02;;
66886;SDS011;67239;51.680;5.976;2023-08-30T06:17:39;22.67;;;16.08;;
66886;SDS011;67239;51.680;5.976;2023-08-30T06:20:07;16.77;;;14.98;;
66886;SDS011;67239;51.680;5.976;2023-08-30T06:22:34;23.42;;;14.70;;
66886;SDS011;67239;51.680;5.976;2023-08-30T06:25:02;21.67;;;15.18;;
66886;SDS011;67239;51.680;5.976;2023-08-30T06:27:31;26.98;;;14.40;;
66886;SDS011;67239;51.680;5.976;2023-08-30T06:29:58;47.92;;;16.55;;
66886;SDS011;67239;51.680;5.976;2023-08-30T06:32:25;21.25;;;14.75;;
66886;SDS011;67239;51.680;5.976;2023-08-30T06:34:52;32.88;;;15.55;;
66886;SDS011;67239;51.680;5.976;2023-08-30T06:37:19;21.70;;;15.80;;
66886;SDS011;67239;51.680;5.976;2023-08-30T06:39:46;24.70;;;15.70;;
66886;SDS011;67239;51.680;5.976;2023-08-30T06:42:13;40.92;;;16.42;;
66886;SDS011;67239;51.680;5.976;2023-08-30T06:44:40;23.35;;;15.77;;
66886;SDS011;67239;51.680;5.976;2023-08-30T06:47:07;18.70;;;15.90;;
66886;SDS011;67239;51.680;5.976;2023-08-30T06:49:34;29.50;;;15.32;;
66886;SDS011;67239;51.680;5.976;2023-08-30T06:52:01;40.45;;;17.70;;
66886;SDS011;67239;51.680;5.976;2023-08-30T06:54:32;37.00;;;17.55;;
66886;SDS011;67239;51.680;5.976;2023-08-30T06:57:01;35.55;;;17.35;;
66886;SDS011;67239;51.680;5.976;2023-08-30T06:59:29;46.78;;;16.48;;
66886;SDS011;67239;51.680;5.976;2023-08-30T07:01:56;33.00;;;16.02;;
66886;SDS011;67239;51.680;5.976;2023-08-30T07:04:23;25.45;;;14.10;;
66886;SDS011;67239;51.680;5.976;2023-08-30T07:06:51;43.35;;;16.40;;
66886;SDS011;67239;51.680;5.976;2023-08-30T07:09:19;18.52;;;13.48;;
66886;SDS011;67239;51.680;5.976;2023-08-30T07:11:49;23.85;;;14.50;;
66886;SDS011;67239;51.680;5.976;2023-08-30T07:14:16;20.08;;;12.98;;
66886;SDS011;67239;51.680;5.976;2023-08-30T07:16:43;55.65;;;17.02;;
66886;SDS011;67239;51.680;5.976;2023-08-30T07:19:11;21.45;;;13.75;;
66886;SDS011;67239;51.680;5.976;2023-08-30T07:21:38;24.75;;;14.68;;
66886;SDS011;67239;51.680;5.976;2023-08-30T07:24:06;23.15;;;12.80;;
66886;SDS011;67239;51.680;5.976;2023-08-30T07:26:34;20.65;;;12.23;;
66886;SDS011;67239;51.680;5.976;2023-08-30T07:29:03;39.15;;;14.32;;
66886;SDS011;67239;51.680;5.976;2023-08-30T07:31:33;24.17;;;14.07;;
66886;SDS011;67239;51.680;5.976;2023-08-30T07:34:00;19.88;;;12.68;;
66886;SDS011;67239;51.680;5.976;2023-08-30T07:36:27;17.55;;;13.40;;
66886;SDS011;67239;51.680;5.976;2023-08-30T07:41:39;16.85;;;13.40;;
66886;SDS011;67239;51.680;5.976;2023-08-30T07:44:06;18.83;;;14.32;;
66886;SDS011;67239;51.680;5.976;2023-08-30T07:46:33;23.02;;;16.13;;
66886;SDS011;67239;51.680;5.976;2023-08-30T07:49:01;19.90;;;15.02;;
66886;SDS011;67239;51.680;5.976;2023-08-30T07:51:29;19.98;;;15.82;;
66886;SDS011;67239;51.680;5.976;2023-08-30T07:53:56;21.50;;;17.25;;
66886;SDS011;67239;51.680;5.976;2023-08-30T07:56:23;22.55;;;16.75;;
66886;SDS011;67239;51.680;5.976;2023-08-30T07:58:50;24.52;;;16.50;;
66886;SDS011;67239;51.680;5.976;2023-08-30T08:01:17;19.63;;;17.52;;
66886;SDS011;67239;51.680;5.976;2023-08-30T08:03:44;22.15;;;16.92;;
66886;SDS011;67239;51.680;5.976;2023-08-30T08:06:31;23.45;;;17.70;;
66886;SDS011;67239;51.680;5.976;2023-08-30T08:08:58;23.75;;;18.38;;
66886;SDS011;67239;51.680;5.976;2023-08-30T08:11:26;21.35;;;16.67;;
66886;SDS011;67239;51.680;5.976;2023-08-30T08:13:54;19.85;;;17.23;;
66886;SDS011;67239;51.680;5.976;2023-08-30T08:16:21;18.70;;;16.23;;
66886;SDS011;67239;51.680;5.976;2023-08-30T08:18:48;21.50;;;16.73;;
66886;SDS011;67239;51.680;5.976;2023-08-30T08:21:17;20.20;;;16.95;;
66886;SDS011;67239;51.680;5.976;2023-08-30T08:23:44;22.55;;;16.73;;
66886;SDS011;67239;51.680;5.976;2023-08-30T08:26:16;20.92;;;17.42;;
66886;SDS011;67239;51.680;5.976;2023-08-30T08:28:43;23.30;;;18.20;;
66886;SDS011;67239;51.680;5.976;2023-08-30T08:31:10;24.85;;;18.00;;
66886;SDS011;67239;51.680;5.976;2023-08-30T08:33:37;24.45;;;18.92;;
66886;SDS011;67239;51.680;5.976;2023-08-30T08:36:05;20.98;;;18.20;;
66886;SDS011;67239;51.680;5.976;2023-08-30T08:38:32;23.98;;;18.67;;
66886;SDS011;67239;51.680;5.976;2023-08-30T08:41:01;26.05;;;18.85;;
66886;SDS011;67239;51.680;5.976;2023-08-30T08:43:32;20.58;;;18.33;;
66886;SDS011;67239;51.680;5.976;2023-08-30T08:46:03;21.20;;;18.23;;
66886;SDS011;67239;51.680;5.976;2023-08-30T08:48:33;22.85;;;18.40;;
66886;SDS011;67239;51.680;5.976;2023-08-30T08:51:07;22.33;;;18.30;;
66886;SDS011;67239;51.680;5.976;2023-08-30T08:53:35;19.17;;;16.48;;
66886;SDS011;67239;51.680;5.976;2023-08-30T08:56:04;19.17;;;15.70;;
66886;SDS011;67239;51.680;5.976;2023-08-30T08:58:36;18.63;;;15.57;;
66886;SDS011;67239;51.680;5.976;2023-08-30T09:01:05;18.42;;;15.50;;
66886;SDS011;67239;51.680;5.976;2023-08-30T09:03:44;17.17;;;14.43;;
66886;SDS011;67239;51.680;5.976;2023-08-30T09:06:11;18.08;;;13.40;;
66886;SDS011;67239;51.680;5.976;2023-08-30T09:08:39;14.35;;;11.88;;
66886;SDS011;67239;51.680;5.976;2023-08-30T09:11:07;13.50;;;11.95;;
66886;SDS011;67239;51.680;5.976;2023-08-30T09:13:34;14.95;;;11.00;;
66886;SDS011;67239;51.680;5.976;2023-08-30T09:16:02;12.80;;;10.20;;
66886;SDS011;67239;51.680;5.976;2023-08-30T09:18:29;10.65;;;9.25;;
66886;SDS011;67239;51.680;5.976;2023-08-30T09:21:06;10.45;;;9.13;;
66886;SDS011;67239;51.680;5.976;2023-08-30T09:23:34;10.13;;;8.40;;
66886;SDS011;67239;51.680;5.976;2023-08-30T09:26:02;12.23;;;8.32;;
66886;SDS011;67239;51.680;5.976;2023-08-30T09:28:30;10.07;;;6.72;;
66886;SDS011;67239;51.680;5.976;2023-08-30T09:31:01;9.65;;;7.25;;
66886;SDS011;67239;51.680;5.976;2023-08-30T09:33:46;7.65;;;6.55;;
66886;SDS011;67239;51.680;5.976;2023-08-30T09:36:16;7.07;;;5.80;;
66886;SDS011;67239;51.680;5.976;2023-08-30T09:38:49;7.75;;;6.13;;
66886;SDS011;67239;51.680;5.976;2023-08-30T09:41:16;9.25;;;5.63;;
66886;SDS011;67239;51.680;5.976;2023-08-30T09:43:44;6.85;;;6.10;;
66886;SDS011;67239;51.680;5.976;2023-08-30T09:46:11;7.95;;;5.35;;
66886;SDS011;67239;51.680;5.976;2023-08-30T09:48:38;6.75;;;5.88;;
66886;SDS011;67239;51.680;5.976;2023-08-30T09:51:07;7.90;;;5.90;;
66886;SDS011;67239;51.680;5.976;2023-08-30T09:53:40;7.65;;;5.88;;
66886;SDS011;67239;51.680;5.976;2023-08-30T09:56:33;8.32;;;6.50;;
66886;SDS011;67239;51.680;5.976;2023-08-30T09:59:02;7.72;;;5.75;;
66886;SDS011;67239;51.680;5.976;2023-08-30T10:01:31;6.72;;;6.03;;
66886;SDS011;67239;51.680;5.976;2023-08-30T10:03:58;10.82;;;5.93;;
66886;SDS011;67239;51.680;5.976;2023-08-30T10:06:30;6.20;;;5.60;;
66886;SDS011;67239;51.680;5.976;2023-08-30T10:08:58;6.82;;;6.13;;
66886;SDS011;67239;51.680;5.976;2023-08-30T10:11:32;8.55;;;6.50;;
66886;SDS011;67239;51.680;5.976;2023-08-30T10:14:00;7.82;;;5.78;;
66886;SDS011;67239;51.680;5.976;2023-08-30T10:16:32;6.82;;;5.75;;
66886;SDS011;67239;51.680;5.976;2023-08-30T10:19:32;6.60;;;5.43;;
66886;SDS011;67239;51.680;5.976;2023-08-30T10:22:04;6.68;;;5.40;;
66886;SDS011;67239;51.680;5.976;2023-08-30T10:24:42;7.85;;;5.28;;
66886;SDS011;67239;51.680;5.976;2023-08-30T10:27:37;10.05;;;5.82;;
66886;SDS011;67239;51.680;5.976;2023-08-30T10:30:10;6.15;;;5.20;;
66886;SDS011;67239;51.680;5.976;2023-08-30T10:32:40;5.80;;;5.25;;
66886;SDS011;67239;51.680;5.976;2023-08-30T10:35:15;6.00;;;5.40;;
66886;SDS011;67239;51.680;5.976;2023-08-30T10:37:54;7.25;;;5.28;;
66886;SDS011;67239;51.680;5.976;2023-08-30T10:40:26;6.28;;;5.28;;
66886;SDS011;67239;51.680;5.976;2023-08-30T10:43:00;6.65;;;4.85;;
66886;SDS011;67239;51.680;5.976;2023-08-30T10:45:29;5.88;;;5.28;;
66886;SDS011;67239;51.680;5.976;2023-08-30T10:47:57;6.10;;;5.00;;
66886;SDS011;67239;51.680;5.976;2023-08-30T10:50:30;5.75;;;5.10;;
66886;SDS011;67239;51.680;5.976;2023-08-30T10:52:59;5.95;;;5.40;;
66886;SDS011;67239;51.680;5.976;2023-08-30T10:55:27;6.53;;;5.60;;
66886;SDS011;67239;51.680;5.976;2023-08-30T10:57:58;5.90;;;5.30;;
66886;SDS011;67239;51.680;5.976;2023-08-30T11:00:33;5.60;;;4.97;;
66886;SDS011;67239;51.680;5.976;2023-08-30T11:03:02;5.50;;;4.80;;
66886;SDS011;67239;51.680;5.976;2023-08-30T11:05:30;5.63;;;5.00;;
66886;SDS011;67239;51.680;5.976;2023-08-30T11:07:57;5.93;;;5.10;;
66886;SDS011;67239;51.680;5.976;2023-08-30T11:10:25;6.53;;;5.22;;
66886;SDS011;67239;51.680;5.976;2023-08-30T11:12:52;5.63;;;4.88;;
66886;SDS011;67239;51.680;5.976;2023-08-30T11:15:19;5.50;;;4.55;;
66886;SDS011;67239;51.680;5.976;2023-08-30T11:17:48;5.07;;;4.53;;
66886;SDS011;67239;51.680;5.976;2023-08-30T11:20:16;7.20;;;5.15;;
66886;SDS011;67239;51.680;5.976;2023-08-30T11:22:45;7.60;;;5.35;;
66886;SDS011;67239;51.680;5.976;2023-08-30T11:25:15;5.28;;;4.75;;
66886;SDS011;67239;51.680;5.976;2023-08-30T11:27:43;6.22;;;4.95;;
66886;SDS011;67239;51.680;5.976;2023-08-30T11:30:11;5.63;;;4.75;;
66886;SDS011;67239;51.680;5.976;2023-08-30T11:32:39;14.75;;;5.80;;
66886;SDS011;67239;51.680;5.976;2023-08-30T11:35:10;9.57;;;4.75;;
66886;SDS011;67239;51.680;5.976;2023-08-30T11:37:37;5.97;;;4.10;;
66886;SDS011;67239;51.680;5.976;2023-08-30T11:40:06;5.72;;;4.55;;
66886;SDS011;67239;51.680;5.976;2023-08-30T11:42:34;8.15;;;4.72;;
66886;SDS011;67239;51.680;5.976;2023-08-30T11:45:03;9.57;;;4.80;;
66886;SDS011;67239;51.680;5.976;2023-08-30T11:47:31;5.10;;;4.60;;
66886;SDS011;67239;51.680;5.976;2023-08-30T11:49:58;5.45;;;4.47;;
66886;SDS011;67239;51.680;5.976;2023-08-30T11:52:27;9.23;;;5.95;;
66886;SDS011;67239;51.680;5.976;2023-08-30T11:54:54;13.95;;;6.60;;
66886;SDS011;67239;51.680;5.976;2023-08-30T11:57:22;6.65;;;5.60;;
66886;SDS011;67239;51.680;5.976;2023-08-30T11:59:49;7.18;;;5.13;;
66886;SDS011;67239;51.680;5.976;2023-08-30T12:02:17;8.65;;;6.72;;
66886;SDS011;67239;51.680;5.976;2023-08-30T12:04:45;7.47;;;6.68;;
66886;SDS011;67239;51.680;5.976;2023-08-30T12:07:21;11.60;;;8.07;;
66886;SDS011;67239;51.680;5.976;2023-08-30T12:09:50;11.27;;;7.95;;
66886;SDS011;67239;51.680;5.976;2023-08-30T12:12:18;9.55;;;7.50;;
66886;SDS011;67239;51.680;5.976;2023-08-30T12:14:45;10.82;;;7.07;;
66886;SDS011;67239;51.680;5.976;2023-08-30T12:17:22;11.02;;;6.00;;
66886;SDS011;67239;51.680;5.976;2023-08-30T12:19:58;7.65;;;5.60;;
66886;SDS011;67239;51.680;5.976;2023-08-30T12:22:38;10.50;;;6.32;;
66886;SDS011;67239;51.680;5.976;2023-08-30T12:25:24;8.55;;;6.03;;
66886;SDS011;67239;51.680;5.976;2023-08-30T12:27:52;8.77;;;5.80;;
66886;SDS011;67239;51.680;5.976;2023-08-30T12:30:19;6.78;;;4.53;;
66886;SDS011;67239;51.680;5.976;2023-08-30T12:32:46;8.05;;;3.90;;
66886;SDS011;67239;51.680;5.976;2023-08-30T12:35:15;7.88;;;3.80;;
66886;SDS011;67239;51.680;5.976;2023-08-30T12:37:42;7.40;;;3.83;;
66886;SDS011;67239;51.680;5.976;2023-08-30T12:40:10;7.95;;;3.70;;
66886;SDS011;67239;51.680;5.976;2023-08-30T12:42:38;5.88;;;3.88;;
66886;SDS011;67239;51.680;5.976;2023-08-30T12:45:05;12.10;;;4.22;;
66886;SDS011;67239;51.680;5.976;2023-08-30T12:47:34;7.85;;;3.83;;
66886;SDS011;67239;51.680;5.976;2023-08-30T12:50:03;7.03;;;2.70;;
66886;SDS011;67239;51.680;5.976;2023-08-30T12:52:31;4.88;;;1.55;;
66886;SDS011;67239;51.680;5.976;2023-08-30T12:54:58;6.22;;;2.22;;
66886;SDS011;67239;51.680;5.976;2023-08-30T12:57:25;5.75;;;2.10;;
66886;SDS011;67239;51.680;5.976;2023-08-30T12:59:52;7.25;;;2.05;;
66886;SDS011;67239;51.680;5.976;2023-08-30T13:02:20;6.50;;;1.90;;
66886;SDS011;67239;51.680;5.976;2023-08-30T13:04:47;8.68;;;2.10;;
66886;SDS011;67239;51.680;5.976;2023-08-30T13:07:14;4.47;;;1.75;;
66886;SDS011;67239;51.680;5.976;2023-08-30T13:09:41;6.07;;;2.17;;
66886;SDS011;67239;51.680;5.976;2023-08-30T13:12:08;5.75;;;2.40;;
66886;SDS011;67239;51.680;5.976;2023-08-30T13:14:36;6.90;;;2.17;;
66886;SDS011;67239;51.680;5.976;2023-08-30T13:17:03;7.72;;;1.85;;
66886;SDS011;67239;51.680;5.976;2023-08-30T13:19:30;7.78;;;1.92;;
66886;SDS011;67239;51.680;5.976;2023-08-30T13:21:58;5.20;;;1.70;;
66886;SDS011;67239;51.680;5.976;2023-08-30T13:24:25;4.95;;;1.80;;
66886;SDS011;67239;51.680;5.976;2023-08-30T13:26:53;8.68;;;2.08;;
66886;SDS011;67239;51.680;5.976;2023-08-30T13:29:20;10.15;;;2.33;;
66886;SDS011;67239;51.680;5.976;2023-08-30T13:31:47;7.03;;;2.17;;
66886;SDS011;67239;51.680;5.976;2023-08-30T13:34:14;6.60;;;2.20;;
66886;SDS011;67239;51.680;5.976;2023-08-30T13:36:41;8.05;;;2.25;;
66886;SDS011;67239;51.680;5.976;2023-08-30T13:39:08;7.57;;;1.98;;
66886;SDS011;67239;51.680;5.976;2023-08-30T13:41:35;6.53;;;1.95;;
66886;SDS011;67239;51.680;5.976;2023-08-30T13:44:02;8.32;;;2.22;;
66886;SDS011;67239;51.680;5.976;2023-08-30T13:46:30;7.75;;;2.08;;
66886;SDS011;67239;51.680;5.976;2023-08-30T13:48:57;4.88;;;1.83;;
66886;SDS011;67239;51.680;5.976;2023-08-30T13:51:25;7.57;;;2.13;;
66886;SDS011;67239;51.680;5.976;2023-08-30T13:53:53;11.35;;;2.20;;
66886;SDS011;67239;51.680;5.976;2023-08-30T13:56:20;9.38;;;2.45;;
66886;SDS011;67239;51.680;5.976;2023-08-30T13:58:48;7.07;;;1.90;;
66886;SDS011;67239;51.680;5.976;2023-08-30T14:01:16;8.25;;;2.03;;
66886;SDS011;67239;51.680;5.976;2023-08-30T14:03:43;7.72;;;2.10;;
66886;SDS011;67239;51.680;5.976;2023-08-30T14:06:11;8.13;;;2.42;;
66886;SDS011;67239;51.680;5.976;2023-08-30T14:08:38;6.93;;;2.13;;
66886;SDS011;67239;51.680;5.976;2023-08-30T14:11:05;6.57;;;2.20;;
66886;SDS011;67239;51.680;5.976;2023-08-30T14:13:32;5.75;;;2.13;;
66886;SDS011;67239;51.680;5.976;2023-08-30T14:16:00;6.20;;;2.00;;
66886;SDS011;67239;51.680;5.976;2023-08-30T14:18:30;8.40;;;2.00;;
66886;SDS011;67239;51.680;5.976;2023-08-30T14:20:58;12.38;;;2.20;;
66886;SDS011;67239;51.680;5.976;2023-08-30T14:23:26;10.73;;;2.15;;
66886;SDS011;67239;51.680;5.976;2023-08-30T14:25:58;7.72;;;2.08;;
66886;SDS011;67239;51.680;5.976;2023-08-30T14:28:27;6.28;;;1.80;;
66886;SDS011;67239;51.680;5.976;2023-08-30T14:30:54;8.13;;;2.03;;
66886;SDS011;67239;51.680;5.976;2023-08-30T14:33:21;6.53;;;1.60;;
66886;SDS011;67239;51.680;5.976;2023-08-30T14:35:48;10.90;;;1.83;;
66886;SDS011;67239;51.680;5.976;2023-08-30T14:38:15;7.90;;;2.20;;
66886;SDS011;67239;51.680;5.976;2023-08-30T14:40:42;6.57;;;1.90;;
66886;SDS011;67239;51.680;5.976;2023-08-30T14:43:10;18.55;;;2.50;;
66886;SDS011;67239;51.680;5.976;2023-08-30T14:45:37;8.32;;;1.73;;
66886;SDS011;67239;51.680;5.976;2023-08-30T14:48:04;7.15;;;2.00;;
66886;SDS011;67239;51.680;5.976;2023-08-30T14:50:31;4.85;;;1.75;;